METAR Data
IDs: Format: Raw Decoded Include TAF

Data at: 1019 UTC 26 Sep 2018

KHEI 260953Z AUTO 00000KT 10SM CLR 01/M02 A3017 RMK AO2 SLP228 T00061017
KHEI 260853Z AUTO 31006KT 10SM CLR 01/M02 A3017 RMK AO2 SLP231 T00061017 58004
KHEI 260753Z AUTO 00000KT 10SM CLR 00/M02 A3019 RMK AO2 SLP237 T00001017
KHEI 260653Z AUTO 30007KT 10SM CLR M01/M02 A3019 RMK AO2 SLP237 T10061022 401391006
KHEI 260553Z AUTO 29003KT 10SM CLR 01/M01 A3019 RMK AO2 SLP237 T00061011 10111 21006 51004
KHEI 260453Z AUTO 31004KT 10SM CLR 00/M01 A3019 RMK AO2 SLP238 T00001011
KHEI 260353Z AUTO 29003KT 10SM CLR 02/00 A3018 RMK AO2 SLP235 T00170000
KHEI 260253Z AUTO 00000KT 10SM CLR 03/01 A3018 RMK AO2 SLP233 T00330006 51012
KHEI 260153Z AUTO 28003KT 10SM CLR 04/01 A3017 RMK AO2 SLP235 T00390006
KHEI 260053Z AUTO 32009KT 10SM CLR 08/01 A3016 RMK AO2 SLP226 T00780011
KHEI 252353Z AUTO 32016G22KT 10SM FEW065 FEW085 11/01 A3014 RMK AO2 PK WND 32027/2336 SLP214 T01110006 10139 20089 53011
KHEI 252253Z AUTO 33021G28KT 10SM FEW055 FEW075 12/01 A3012 RMK AO2 PK WND 33029/2220 SLP211 T01220011
KHEI 252153Z AUTO 31017G25KT 10SM FEW047 BKN060 12/02 A3011 RMK AO2 PK WND 31036/2125 SLP203 T01220022
KHEI 252053Z AUTO 31022G29KT 10SM BKN055 12/02 A3010 RMK AO2 PK WND 31032/2008 SLP199 T01220017 50002
KHEI 251953Z AUTO 33020G29KT 10SM FEW030 BKN048 BKN060 11/04 A3011 RMK AO2 PK WND 31033/1916 SLP202 T01060039
KHEI 251853Z AUTO 30018G26KT 10SM FEW030 BKN055 BKN090 11/04 A3010 RMK AO2 PK WND 29035/1807 SLP200 T01110039
KHEI 251753Z AUTO 30024G30KT 10SM FEW050 OVC060 11/02 A3010 RMK AO2 PK WND 29030/1745 SLP196 T01110022 10117 20050 51002
KHEI 251653Z AUTO 30021G30KT 10SM FEW027 SCT060 11/03 A3009 RMK AO2 PK WND 29030/1602 SLP198 T01110033
KHEI 251621Z AUTO 30019G27KT 10SM SCT024 BKN031 09/04 A3010 RMK AO2 PK WND 29030/1602 T00940039
KHEI 251553Z AUTO 29019G27KT 10SM BKN023 OVC031 09/05 A3010 RMK AO2 PK WND 29028/1534 SLP199 T00940050
KHEI 251453Z AUTO 28017KT 10SM BKN018 08/05 A3009 RMK AO2 SLP199 T00780050 51003
KHEI 251446Z AUTO 28016KT 10SM BKN018 07/05 A3009 RMK AO2 T00720050
KHEI 251353Z AUTO 26012KT 10SM BKN090 06/05 A3009 RMK AO2 SLP199 T00610050
KHEI 251253Z AUTO 26010KT 10SM FEW030 OVC038 06/04 A3009 RMK AO2 SLP198 T00560044
KHEI 251153Z AUTO 28010KT 10SM OVC080 05/04 A3008 RMK AO2 SLP194 60007 7//// T00500039 10083 20028 53006
KHEI 251053Z AUTO 28006KT 10SM FEW100 03/03 A3007 RMK AO2 SLP187 T00330033
KHEI 250953Z AUTO 31006KT 10SM FEW033 OVC043 06/05 A3006 RMK AO2 RAB05E33 SLP182 P0003 T00610050 $
KHEI 250933Z AUTO 32011KT 10SM SCT010 BKN032 OVC044 06/04 A3007 RMK AO2 RAB05E33 P0003 T00610044 $
KHEI 250912Z AUTO 31007KT 4SM RA BR SCT009 BKN016 OVC024 07/07 A3007 RMK AO2 RAB05 P0002 T00720067 $
KHEI 250853Z AUTO 31006KT 10SM SCT012 BKN024 OVC036 08/07 A3006 RMK AO2 RAE23 SLP179 P0003 60004 T00780067 53006 $
KHEI 250828Z AUTO 29005KT 10SM BKN013 BKN025 OVC043 08/07 A3005 RMK AO2 RAE23 P0003 T00780067 $
KHEI 250815Z AUTO 29006KT 5SM -RA BR FEW016 BKN030 OVC041 08/07 A3005 RMK AO2 P0003 T00780067 $
KHEI 250808Z AUTO 29005KT 4SM RA BR FEW014 BKN026 OVC041 08/07 A3005 RMK AO2 P0003 T00780067 $
KHEI 250753Z AUTO 29007KT 4SM -RA BR FEW020 FEW025 OVC034 08/07 A3005 RMK AO2 RAB22 SLP176 P0001 T00780067 $
KHEI 250729Z AUTO 29006KT 6SM -RA BR SCT023 BKN029 OVC045 08/07 A3004 RMK AO2 RAB22 P0000 T00780067 $
KHEI 250653Z AUTO 33005KT 10SM BKN034 BKN050 OVC070 08/07 A3002 RMK AO2 SLP170 T00780067 401890044 $
KHEI 250632Z AUTO 32004KT 10SM SCT020 OVC031 08/07 A3004 RMK AO2 T00780072 $
KHEI 250553Z AUTO 31007KT 10SM BKN023 OVC041 08/07 A3004 RMK AO2 SLP178 6//// T00830072 10089 20078 51008 $
KHEI 250532Z AUTO 32010KT 10SM SCT030 BKN041 OVC070 08/07 A3004 RMK AO2 T00830067 $
KHEI 250453Z AUTO 32005KT 10SM OVC028 08/07 A3004 RMK AO2 RAB0355E19 SLP181 P0001 T00780072 $
KHEI 250443Z AUTO 32004KT 10SM BKN029 OVC060 08/07 A3004 RMK AO2 RAB0355E19 P0001 T00780072 $
KHEI 250353Z AUTO 32003KT 10SM FEW050 BKN070 OVC085 08/07 A3003 RMK AO2 RAE27 SLP181 P0000 T00780072 $
KHEI 250253Z AUTO 03005KT 10SM -RA OVC050 08/07 A3001 RMK AO2 SLP176 P0003 6//// T00780067 $
KHEI 250153Z AUTO 01006KT 10SM -RA OVC055 09/08 A2998 RMK AO2 RAB19 SLP164 P0005 T00890078 $
KHEI 242353Z AUTO 02008KT 10SM BKN065 BKN095 11/09 A2991 RMK AO2 LTG DSNT E AND SE RAE37 PRESRR SLP136 P0003 60010 T01110089 10189 20111 53011
KHEI 242331Z AUTO 13007KT 10SM -RA BKN050 BKN070 BKN090 11/08 A2988 RMK AO2 LTG DSNT E P0003 T01110083
KHEI 242302Z AUTO 19008KT 3SM VCTS -RA OVC050 12/08 A2988 RMK AO2 P0002 T01220083
KHEI 242253Z AUTO 00000KT 1 1/2SM VCTS +RA FEW027 BKN047 OVC055 12/07 A2988 RMK AO2 RAB29 SLP124 P0007 T01220072
KHEI 242240Z AUTO 33009KT 10SM VCTS -RA BKN055 BKN070 OVC110 15/07 A2988 RMK AO2 RAB29 P0000 T01500072